Time;durP1;ratioP1;P1;durP2;ratioP2;P2;SDS_P1;SDS_P2;PMS_P1;PMS_P2;Temp;Humidity;BMP_temperature;BMP_pressure;BME280_temperature;BME280_humidity;BME280_pressure;Samples;Min_cycle;Max_cycle;Signal;HPM_P1;HPM_P2
2023/04/24 00:00:31;;;;;;;17.33;11.17;;;10.30;99.90;;;;;;5095659;28;20178;-77
2023/04/24 00:02:57;;;;;;;17.73;12.03;;;10.40;99.90;;;;;;5077223;28;20537;-78
2023/04/24 00:05:24;;;;;;;18.13;11.50;;;10.40;99.90;;;;;;5094909;28;20203;-79
2023/04/24 00:07:54;;;;;;;17.80;11.47;;;10.20;99.90;;;;;;5090594;28;20181;-78
2023/04/24 00:10:21;;;;;;;14.90;10.47;;;10.20;99.90;;;;;;5093997;28;20198;-77
2023/04/24 00:12:47;;;;;;;22.70;10.83;;;10.30;99.90;;;;;;5094725;28;20166;-76
2023/04/24 00:15:13;;;;;;;19.33;11.27;;;10.20;99.90;;;;;;5094771;28;20232;-76
2023/04/24 00:17:38;;;;;;;19.50;11.37;;;10.20;99.90;;;;;;5094816;28;20182;-76
2023/04/24 00:20:06;;;;;;;23.47;11.83;;;10.10;99.90;;;;;;5094439;28;20205;-76
2023/04/24 00:22:32;;;;;;;21.10;11.70;;;10.20;99.90;;;;;;5093847;28;20205;-76
2023/04/24 00:24:58;;;;;;;23.17;12.87;;;10.30;99.90;;;;;;5094578;28;20683;-78
2023/04/24 00:27:24;;;;;;;19.17;10.67;;;10.30;99.90;;;;;;5094810;28;20252;-78
2023/04/24 00:29:50;;;;;;;20.90;11.67;;;10.20;99.90;;;;;;5094753;28;20569;-77
2023/04/24 00:32:15;;;;;;;26.27;12.20;;;10.20;99.90;;;;;;5094384;28;20178;-78
2023/04/24 00:34:41;;;;;;;18.23;11.47;;;10.30;99.90;;;;;;5076715;28;20183;-77
2023/04/24 00:37:07;;;;;;;18.93;10.57;;;10.20;99.90;;;;;;5094887;28;20249;-79
2023/04/24 00:39:33;;;;;;;19.53;11.03;;;10.10;99.90;;;;;;5094713;28;20185;-78
2023/04/24 00:41:59;;;;;;;16.87;10.53;;;10.00;99.90;;;;;;5094754;28;20175;-78
2023/04/24 00:44:25;;;;;;;21.00;11.60;;;9.90;99.90;;;;;;5093931;28;20182;-79
2023/04/24 00:46:54;;;;;;;25.27;12.57;;;10.10;99.90;;;;;;5094765;28;20170;-76
2023/04/24 00:49:21;;;;;;;24.87;12.37;;;10.10;99.90;;;;;;5094098;28;20166;-77
2023/04/24 00:51:47;;;;;;;16.23;11.43;;;10.20;99.90;;;;;;5094509;28;20186;-76
2023/04/24 00:54:16;;;;;;;19.97;11.53;;;10.10;99.90;;;;;;5094557;28;20630;-78
2023/04/24 00:56:45;;;;;;;21.73;12.20;;;10.20;99.90;;;;;;5094536;28;20202;-78
2023/04/24 00:59:12;;;;;;;24.67;13.07;;;10.40;99.90;;;;;;5093966;28;20170;-77
2023/04/24 01:01:41;;;;;;;16.53;10.63;;;10.50;99.90;;;;;;5094040;28;20178;-77
2023/04/24 01:04:09;;;;;;;20.60;11.97;;;10.20;99.90;;;;;;5094688;28;20147;-78
2023/04/24 01:06:38;;;;;;;19.30;11.90;;;10.30;99.90;;;;;;5087396;28;20178;-77
2023/04/24 01:09:04;;;;;;;21.27;11.57;;;10.20;99.90;;;;;;5094420;28;20695;-78
2023/04/24 01:11:31;;;;;;;16.13;11.80;;;10.10;99.90;;;;;;5092305;28;20293;-77
2023/04/24 01:13:58;;;;;;;20.33;12.37;;;10.00;99.90;;;;;;5090408;28;20171;-78
2023/04/24 01:16:25;;;;;;;21.03;12.10;;;10.10;99.90;;;;;;5093634;28;20212;-77
2023/04/24 01:18:51;;;;;;;18.40;11.10;;;9.80;99.90;;;;;;5093639;28;20169;-76
2023/04/24 01:21:20;;;;;;;16.63;11.37;;;9.70;99.90;;;;;;5077515;28;20198;-79
2023/04/24 01:23:46;;;;;;;19.93;12.53;;;9.60;99.90;;;;;;5093596;28;20237;-78
2023/04/24 01:26:13;;;;;;;16.63;11.27;;;9.60;99.90;;;;;;5075500;28;20189;-77
2023/04/24 01:28:39;;;;;;;18.83;11.33;;;9.70;99.90;;;;;;5074983;28;20683;-79
2023/04/24 01:31:05;;;;;;;17.33;11.27;;;9.60;99.90;;;;;;5075214;28;20666;-77
2023/04/24 01:33:32;;;;;;;22.67;11.37;;;9.70;99.90;;;;;;5093328;28;20177;-77
2023/04/24 01:35:58;;;;;;;20.10;11.73;;;9.70;99.90;;;;;;5075927;28;20171;-77
2023/04/24 01:38:23;;;;;;;16.53;10.33;;;9.70;99.90;;;;;;5093076;28;20177;-77
2023/04/24 01:40:50;;;;;;;16.33;10.80;;;9.80;99.90;;;;;;5093186;28;20171;-77
2023/04/24 01:43:16;;;;;;;14.20;8.50;;;9.60;99.90;;;;;;5092680;28;20173;-77
2023/04/24 01:45:44;;;;;;;11.67;8.50;;;9.60;99.90;;;;;;5074879;28;20178;-77
2023/04/24 01:48:10;;;;;;;13.97;9.40;;;9.60;99.90;;;;;;5075593;28;20261;-77
2023/04/24 01:50:36;;;;;;;15.27;9.63;;;9.60;99.90;;;;;;5093130;28;20194;-77
2023/04/24 01:53:02;;;;;;;13.03;8.90;;;9.60;99.90;;;;;;5093497;28;20155;-77
2023/04/24 01:55:28;;;;;;;14.87;8.57;;;9.70;99.90;;;;;;5092955;28;20223;-77
2023/04/24 01:57:55;;;;;;;14.33;9.80;;;9.70;99.90;;;;;;5093498;28;20178;-77
2023/04/24 02:00:21;;;;;;;13.60;9.50;;;9.80;99.90;;;;;;5093303;28;20182;-77
2023/04/24 02:02:47;;;;;;;13.37;9.57;;;9.70;99.90;;;;;;5093297;28;20175;-77
2023/04/24 02:05:14;;;;;;;17.00;10.00;;;9.80;99.90;;;;;;5093182;28;20174;-77
2023/04/24 02:07:40;;;;;;;14.27;9.80;;;9.80;99.90;;;;;;5092983;28;20269;-77
2023/04/24 02:10:06;;;;;;;16.37;10.70;;;9.70;99.90;;;;;;5092674;28;20628;-76
2023/04/24 02:12:32;;;;;;;13.33;9.80;;;9.80;99.90;;;;;;5093267;28;20350;-77
2023/04/24 02:14:58;;;;;;;15.07;9.60;;;9.80;99.90;;;;;;5075415;28;20625;-77
2023/04/24 02:17:24;;;;;;;14.90;10.63;;;9.70;99.90;;;;;;5093311;28;20163;-76
2023/04/24 02:19:51;;;;;;;19.97;10.87;;;9.70;99.90;;;;;;5092974;28;20174;-77
2023/04/24 02:22:17;;;;;;;20.63;10.50;;;9.70;99.90;;;;;;5092927;28;20208;-78
2023/04/24 02:24:42;;;;;;;15.67;10.97;;;9.70;99.90;;;;;;5093562;28;20166;-77
2023/04/24 02:27:09;;;;;;;16.10;11.37;;;9.80;99.90;;;;;;5093174;28;20208;-77
2023/04/24 02:29:35;;;;;;;17.93;10.87;;;9.80;99.90;;;;;;5093127;28;20249;-76
2023/04/24 02:32:00;;;;;;;15.77;9.63;;;9.70;99.90;;;;;;5092866;28;20284;-77
2023/04/24 02:34:27;;;;;;;17.80;10.07;;;9.70;99.90;;;;;;5092877;28;20421;-76
2023/04/24 02:36:54;;;;;;;15.27;10.47;;;9.70;99.90;;;;;;5075205;28;20620;-77
2023/04/24 02:39:20;;;;;;;14.77;9.97;;;9.80;99.90;;;;;;5093076;28;20170;-77
2023/04/24 02:41:45;;;;;;;17.73;11.80;;;9.60;99.90;;;;;;5092393;28;20223;-78
2023/04/24 02:44:11;;;;;;;20.17;12.43;;;9.70;99.90;;;;;;5092673;28;20182;-77
2023/04/24 02:46:37;;;;;;;13.73;9.33;;;9.60;99.90;;;;;;5090927;28;20175;-79
2023/04/24 02:49:03;;;;;;;15.23;11.57;;;9.60;99.90;;;;;;5092664;28;20173;-77
2023/04/24 02:51:29;;;;;;;25.13;12.27;;;9.60;99.90;;;;;;5092761;28;20189;-77
2023/04/24 02:53:55;;;;;;;16.43;11.90;;;9.60;99.90;;;;;;5093393;28;20154;-77
2023/04/24 02:56:21;;;;;;;16.63;11.77;;;9.60;99.90;;;;;;5093372;28;20167;-76
2023/04/24 02:58:46;;;;;;;15.43;11.57;;;9.60;99.90;;;;;;5093796;28;20158;-76
2023/04/24 03:01:12;;;;;;;15.93;12.10;;;9.60;99.90;;;;;;5075525;28;20171;-77
2023/04/24 03:03:39;;;;;;;17.77;11.67;;;9.60;99.90;;;;;;5093110;28;20159;-76
2023/04/24 03:06:07;;;;;;;15.93;11.17;;;9.40;99.90;;;;;;5075356;28;20175;-78
2023/04/24 03:08:34;;;;;;;17.43;11.47;;;9.30;99.90;;;;;;5075016;28;20180;-77
2023/04/24 03:11:00;;;;;;;17.20;11.90;;;9.50;99.90;;;;;;5092633;28;20699;-77
2023/04/24 03:13:25;;;;;;;19.43;11.43;;;9.60;99.90;;;;;;5074830;28;20173;-76
2023/04/24 03:15:51;;;;;;;14.17;9.43;;;9.60;99.90;;;;;;5092588;28;20162;-77
2023/04/24 03:18:18;;;;;;;16.73;10.47;;;9.40;99.90;;;;;;5074313;28;20158;-77
2023/04/24 03:20:46;;;;;;;17.60;10.50;;;9.40;99.90;;;;;;5074800;28;20185;-77
2023/04/24 03:23:12;;;;;;;13.17;9.93;;;9.50;99.90;;;;;;5092161;28;20697;-78
2023/04/24 03:25:37;;;;;;;14.73;11.00;;;9.60;99.90;;;;;;5091989;28;20182;-78
2023/04/24 03:28:04;;;;;;;14.67;9.77;;;9.50;99.90;;;;;;5074509;28;20261;-77
2023/04/24 03:30:30;;;;;;;14.70;10.33;;;9.40;99.90;;;;;;5093559;28;20284;-78
2023/04/24 03:32:56;;;;;;;16.07;10.33;;;9.40;99.90;;;;;;5096003;28;20255;-77
2023/04/24 03:35:22;;;;;;;14.57;9.53;;;9.30;99.90;;;;;;5096461;28;20159;-77
2023/04/24 03:37:48;;;;;;;15.60;9.13;;;9.30;99.90;;;;;;5089214;28;20168;-77
2023/04/24 03:40:13;;;;;;;13.57;10.10;;;9.40;99.90;;;;;;5095795;28;20206;-77
2023/04/24 03:42:39;;;;;;;9.77;7.77;;;9.40;99.90;;;;;;5077629;28;20166;-77
2023/04/24 03:45:06;;;;;;;11.67;7.43;;;9.40;99.90;;;;;;5095418;28;20170;-78
2023/04/24 03:47:31;;;;;;;9.47;7.07;;;9.50;99.90;;;;;;5096109;28;20206;-77
2023/04/24 03:49:57;;;;;;;11.03;7.37;;;9.40;99.90;;;;;;5095278;28;20166;-78
2023/04/24 03:52:23;;;;;;;11.30;6.97;;;9.30;99.90;;;;;;5095505;28;20166;-77
2023/04/24 03:54:48;;;;;;;10.40;7.30;;;9.30;99.90;;;;;;5079637;28;20673;-77
2023/04/24 03:57:16;;;;;;;10.73;7.80;;;9.50;99.90;;;;;;5078306;28;20239;-77
2023/04/24 03:59:42;;;;;;;10.30;7.63;;;9.60;99.90;;;;;;5077267;28;20171;-77
2023/04/24 04:02:08;;;;;;;13.57;8.27;;;9.50;99.90;;;;;;5095596;28;20167;-77
2023/04/24 04:04:34;;;;;;;13.60;7.93;;;9.60;99.90;;;;;;5095057;28;20170;-77
2023/04/24 04:07:02;;;;;;;13.20;7.73;;;9.60;99.90;;;;;;5095590;28;20174;-77
2023/04/24 04:09:29;;;;;;;10.53;7.47;;;9.60;99.90;;;;;;5095597;28;20175;-78
2023/04/24 04:11:55;;;;;;;10.47;7.97;;;9.50;99.90;;;;;;5078802;28;20289;-78
2023/04/24 04:14:21;;;;;;;9.70;7.27;;;9.60;99.90;;;;;;5095597;28;20183;-79
2023/04/24 04:16:48;;;;;;;9.00;6.83;;;9.50;99.90;;;;;;5094459;28;20208;-79
2023/04/24 04:19:15;;;;;;;9.80;6.70;;;9.60;99.90;;;;;;5078099;28;20196;-79
2023/04/24 04:21:40;;;;;;;9.60;6.87;;;9.60;99.90;;;;;;5096122;28;20639;-79
2023/04/24 04:24:07;;;;;;;11.07;7.00;;;9.70;99.90;;;;;;5079396;28;20599;-80
2023/04/24 04:26:33;;;;;;;10.23;7.40;;;9.60;99.90;;;;;;5095969;28;20178;-81
2023/04/24 04:29:00;;;;;;;11.07;7.17;;;9.70;99.90;;;;;;5095513;28;20317;-79
2023/04/24 04:31:28;;;;;;;10.23;7.07;;;9.70;99.90;;;;;;5090630;28;20208;-79
2023/04/24 04:33:53;;;;;;;8.43;6.87;;;9.60;99.90;;;;;;5077393;28;20632;-78
2023/04/24 04:36:20;;;;;;;8.97;6.87;;;9.60;99.90;;;;;;5083224;28;20204;-79
2023/04/24 04:38:46;;;;;;;8.33;6.50;;;9.70;99.90;;;;;;5094096;28;20575;-79
2023/04/24 04:41:11;;;;;;;8.83;7.00;;;9.70;99.90;;;;;;5095433;28;20190;-79
2023/04/24 04:43:39;;;;;;;11.93;7.23;;;9.60;99.90;;;;;;5094075;28;20171;-78
2023/04/24 04:46:05;;;;;;;12.60;8.80;;;9.50;99.90;;;;;;5092360;28;20166;-79
2023/04/24 04:48:31;;;;;;;8.73;7.20;;;9.50;99.90;;;;;;5086648;28;20308;-79
2023/04/24 04:50:57;;;;;;;10.83;7.47;;;9.60;99.90;;;;;;5093709;28;20198;-80
2023/04/24 04:53:23;;;;;;;11.30;7.73;;;9.70;99.90;;;;;;5094924;28;20167;-80
2023/04/24 04:55:49;;;;;;;11.80;7.57;;;9.70;99.90;;;;;;5078210;28;20252;-79
2023/04/24 04:58:14;;;;;;;12.07;7.50;;;9.50;99.90;;;;;;5077268;28;20170;-80
2023/04/24 05:00:41;;;;;;;12.13;7.63;;;9.50;99.90;;;;;;5090256;28;20172;-79
2023/04/24 05:03:07;;;;;;;12.47;7.57;;;9.60;99.90;;;;;;5076279;28;20178;-79
2023/04/24 05:05:33;;;;;;;9.57;7.60;;;9.50;99.90;;;;;;5094223;28;20177;-79
2023/04/24 05:08:00;;;;;;;15.37;9.73;;;9.40;99.90;;;;;;5094344;28;20529;-78
2023/04/24 05:10:30;;;;;;;16.33;10.87;;;9.40;99.90;;;;;;5087614;28;20197;-78
2023/04/24 05:12:59;;;;;;;11.87;8.47;;;9.30;99.90;;;;;;5080367;28;20187;-80
2023/04/24 05:15:27;;;;;;;15.97;9.40;;;9.40;99.90;;;;;;5095096;28;20627;-79
2023/04/24 05:17:55;;;;;;;12.57;8.60;;;9.30;99.90;;;;;;5094027;28;20257;-81
2023/04/24 05:20:21;;;;;;;15.53;10.70;;;9.20;99.90;;;;;;5077179;28;20165;-80
2023/04/24 05:22:47;;;;;;;14.60;10.00;;;9.30;99.90;;;;;;5094490;28;20734;-80
2023/04/24 05:25:17;;;;;;;17.10;10.77;;;9.30;99.90;;;;;;5094704;28;20162;-81
2023/04/24 05:27:44;;;;;;;15.80;10.33;;;9.20;99.90;;;;;;5077543;28;20154;-80
2023/04/24 05:30:11;;;;;;;20.40;10.37;;;9.20;99.90;;;;;;5093914;28;20616;-80
2023/04/24 05:32:41;;;;;;;18.40;10.83;;;9.20;99.90;;;;;;5088482;28;20170;-78
2023/04/24 05:35:09;;;;;;;19.27;10.97;;;9.30;99.90;;;;;;5093865;28;20163;-79
2023/04/24 05:37:38;;;;;;;16.37;10.90;;;9.40;99.90;;;;;;5095223;28;20188;-79
2023/04/24 05:40:09;;;;;;;19.27;11.67;;;9.30;99.90;;;;;;5077427;28;20229;-78
2023/04/24 05:42:47;;;;;;;20.50;12.30;;;9.30;99.90;;;;;;5077412;28;20170;-82
2023/04/24 05:45:16;;;;;;;16.83;10.50;;;9.30;99.90;;;;;;5077747;28;20616;-79
2023/04/24 05:48:08;;;;;;;19.57;11.43;;;9.20;99.90;;;;;;5095976;28;20562;-78
2023/04/24 05:50:34;;;;;;;18.83;11.67;;;9.20;99.90;;;;;;5078068;28;20283;-79
2023/04/24 05:53:07;;;;;;;17.50;11.53;;;9.30;99.90;;;;;;5076784;28;20169;-76
2023/04/24 05:55:45;;;;;;;18.73;12.53;;;9.10;99.90;;;;;;5095371;28;20187;-81
2023/04/24 05:58:12;;;;;;;21.23;11.97;;;9.10;99.90;;;;;;5076267;28;20612;-80
2023/04/24 06:00:41;;;;;;;19.77;12.00;;;9.20;99.90;;;;;;5094263;28;20169;-79
2023/04/24 06:03:07;;;;;;;17.83;11.60;;;9.20;99.90;;;;;;5085608;28;20620;-78
2023/04/24 06:05:33;;;;;;;21.57;12.37;;;9.30;99.90;;;;;;5074189;28;20161;-78
2023/04/24 06:07:58;;;;;;;20.03;12.77;;;9.20;99.90;;;;;;5057304;28;20174;-77
2023/04/24 06:10:24;;;;;;;24.23;12.37;;;9.20;99.90;;;;;;5094315;28;20199;-81
2023/04/24 06:12:52;;;;;;;21.17;12.30;;;9.10;99.90;;;;;;5075353;28;20258;-79
2023/04/24 06:15:17;;;;;;;16.53;11.77;;;9.00;99.90;;;;;;5076165;28;20173;-79
2023/04/24 06:17:43;;;;;;;22.27;11.70;;;9.10;99.90;;;;;;5094292;28;20564;-78
2023/04/24 06:20:11;;;;;;;19.50;12.10;;;9.10;99.90;;;;;;5093686;28;20185;-79
2023/04/24 06:22:36;;;;;;;22.33;12.83;;;9.10;99.90;;;;;;5075508;28;20197;-79
2023/04/24 06:25:03;;;;;;;19.17;12.73;;;9.00;99.90;;;;;;5093943;28;20533;-77
2023/04/24 06:27:28;;;;;;;21.27;12.83;;;9.00;99.90;;;;;;5093645;28;20212;-82
2023/04/24 06:29:55;;;;;;;23.00;13.00;;;9.00;99.90;;;;;;5093033;28;20178;-81
2023/04/24 06:32:24;;;;;;;20.87;13.03;;;9.00;99.90;;;;;;5094541;28;20219;-80
2023/04/24 06:34:53;;;;;;;27.63;14.17;;;9.10;99.90;;;;;;5083836;28;20158;-80
2023/04/24 06:37:20;;;;;;;24.87;13.77;;;9.20;99.90;;;;;;5076053;28;20616;-79
2023/04/24 06:39:46;;;;;;;27.73;13.90;;;9.10;99.90;;;;;;5075686;28;20177;-79
2023/04/24 06:42:11;;;;;;;22.33;14.63;;;9.10;99.90;;;;;;5075463;28;20166;-79
2023/04/24 06:44:40;;;;;;;25.40;13.90;;;9.10;99.90;;;;;;5093644;28;20184;-79
2023/04/24 06:47:08;;;;;;;20.67;13.73;;;9.10;99.90;;;;;;5093637;28;20170;-79
2023/04/24 06:49:35;;;;;;;22.07;14.43;;;9.10;99.90;;;;;;5076481;28;20245;-80
2023/04/24 06:52:00;;;;;;;29.17;14.53;;;9.20;99.90;;;;;;5093880;28;20239;-79
2023/04/24 06:54:26;;;;;;;30.57;13.40;;;9.20;99.90;;;;;;5076211;28;20166;-79
2023/04/24 06:56:52;;;;;;;25.13;13.93;;;9.20;99.90;;;;;;5094197;28;20585;-79
2023/04/24 06:59:18;;;;;;;29.40;15.27;;;9.30;99.90;;;;;;5076330;28;20193;-80
2023/04/24 07:01:45;;;;;;;24.97;13.97;;;9.40;99.90;;;;;;5075550;28;20174;-79
2023/04/24 07:04:11;;;;;;;26.00;15.70;;;9.40;99.90;;;;;;5075672;28;20170;-79
2023/04/24 07:06:37;;;;;;;25.20;15.53;;;9.40;99.90;;;;;;5096478;28;20336;-79
2023/04/24 07:09:03;;;;;;;26.40;16.00;;;9.40;99.90;;;;;;5097570;28;20215;-78
2023/04/24 07:11:29;;;;;;;28.40;15.87;;;9.30;99.90;;;;;;5096808;28;20285;-80
2023/04/24 07:13:55;;;;;;;27.90;14.97;;;9.30;99.90;;;;;;5079499;28;20173;-79
2023/04/24 07:16:21;;;;;;;31.87;14.63;;;9.30;99.90;;;;;;5096908;28;20177;-80
2023/04/24 07:18:46;;;;;;;24.40;14.07;;;9.30;99.90;;;;;;5079908;28;20536;-80
2023/04/24 07:21:12;;;;;;;25.53;14.57;;;9.30;99.90;;;;;;5079389;28;20233;-80
2023/04/24 07:23:38;;;;;;;21.43;13.00;;;9.40;99.90;;;;;;5097133;28;20533;-80
2023/04/24 07:26:03;;;;;;;19.47;12.03;;;9.40;99.90;;;;;;5096636;28;20163;-79
2023/04/24 07:28:32;;;;;;;22.67;12.60;;;9.60;99.90;;;;;;5078366;28;20207;-79
2023/04/24 07:30:59;;;;;;;19.00;11.10;;;9.60;99.90;;;;;;5078106;28;20256;-78
2023/04/24 07:33:26;;;;;;;20.67;12.07;;;9.60;99.90;;;;;;5096369;28;20151;-79
2023/04/24 07:35:51;;;;;;;19.87;11.67;;;9.80;99.90;;;;;;5096557;28;20166;-80
2023/04/24 07:38:21;;;;;;;17.80;9.70;;;9.90;99.90;;;;;;5096281;28;20155;-79
2023/04/24 07:40:47;;;;;;;15.60;9.10;;;10.10;99.90;;;;;;5094962;28;20184;-79
2023/04/24 07:43:12;;;;;;;18.50;9.37;;;10.10;99.90;;;;;;5077731;28;20175;-79
2023/04/24 07:45:40;;;;;;;20.20;9.47;;;10.10;99.90;;;;;;5096297;28;20159;-79
2023/04/24 07:48:08;;;;;;;14.37;8.70;;;10.20;99.90;;;;;;5096240;28;20296;-79
2023/04/24 07:50:35;;;;;;;15.90;8.83;;;10.20;99.90;;;;;;5094246;28;20221;-79
2023/04/24 07:53:02;;;;;;;13.33;7.17;;;10.20;99.90;;;;;;5095708;28;20158;-79
2023/04/24 07:55:28;;;;;;;16.93;8.40;;;10.30;99.90;;;;;;5096154;28;20737;-79
2023/04/24 07:57:55;;;;;;;15.27;7.77;;;10.30;99.90;;;;;;5095859;28;20170;-79
2023/04/24 08:00:21;;;;;;;18.13;8.67;;;10.20;99.90;;;;;;5078056;28;20193;-79
2023/04/24 08:02:48;;;;;;;19.17;8.90;;;10.20;99.90;;;;;;5095644;28;20168;-79
2023/04/24 08:05:13;;;;;;;19.97;10.13;;;10.30;99.90;;;;;;5077776;28;20607;-78
2023/04/24 08:07:42;;;;;;;14.90;9.00;;;10.50;99.90;;;;;;5077644;28;20257;-80
2023/04/24 08:10:11;;;;;;;17.40;8.77;;;10.70;99.90;;;;;;5096166;28;20174;-79
2023/04/24 08:12:37;;;;;;;20.27;9.17;;;10.60;99.90;;;;;;5096234;28;20582;-78
2023/04/24 08:15:04;;;;;;;18.47;9.90;;;10.80;99.90;;;;;;5096056;28;20584;-79
2023/04/24 08:17:30;;;;;;;14.57;8.40;;;10.80;99.90;;;;;;5077512;28;20162;-78
2023/04/24 08:20:01;;;;;;;16.20;7.93;;;10.70;99.90;;;;;;5095509;28;20545;-79
2023/04/24 08:22:27;;;;;;;14.03;7.07;;;10.70;99.90;;;;;;5095867;28;20186;-78
2023/04/24 08:24:54;;;;;;;16.80;7.20;;;10.70;99.90;;;;;;5095170;28;20486;-78
2023/04/24 08:27:19;;;;;;;13.83;6.97;;;10.90;99.90;;;;;;5095877;28;20289;-78
2023/04/24 08:29:45;;;;;;;14.80;7.57;;;10.90;99.90;;;;;;5095519;28;20188;-77
2023/04/24 08:32:11;;;;;;;18.00;7.50;;;10.90;99.90;;;;;;5095666;28;20232;-78
2023/04/24 08:34:36;;;;;;;11.87;6.37;;;11.00;99.90;;;;;;5095398;28;20178;-79
2023/04/24 08:37:03;;;;;;;16.17;6.93;;;11.00;99.90;;;;;;5077371;28;20167;-79
2023/04/24 08:39:29;;;;;;;13.37;6.63;;;11.10;99.90;;;;;;5095734;28;20202;-78
2023/04/24 08:41:55;;;;;;;15.63;6.63;;;11.30;99.90;;;;;;5096189;28;20644;-78
2023/04/24 08:44:21;;;;;;;11.60;6.80;;;11.20;99.90;;;;;;5096029;28;20174;-79
2023/04/24 08:46:51;;;;;;;10.20;6.00;;;11.20;99.90;;;;;;5096046;28;20163;-77
2023/04/24 08:49:18;;;;;;;12.40;5.57;;;11.20;99.90;;;;;;5077709;28;20231;-77
2023/04/24 08:51:46;;;;;;;8.50;5.70;;;11.20;99.90;;;;;;5077672;28;20236;-78
2023/04/24 08:54:13;;;;;;;16.67;6.13;;;11.20;99.90;;;;;;5078072;28;20174;-80
2023/04/24 08:56:42;;;;;;;11.77;5.17;;;11.20;99.90;;;;;;5094796;28;20170;-77
2023/04/24 08:59:09;;;;;;;11.20;5.77;;;11.00;99.90;;;;;;5095791;28;20159;-78
2023/04/24 09:01:37;;;;;;;11.77;4.93;;;10.90;99.90;;;;;;5095902;28;20630;-78
2023/04/24 09:04:05;;;;;;;14.13;5.20;;;11.10;99.90;;;;;;5093985;28;20639;-78
2023/04/24 09:06:32;;;;;;;9.07;4.97;;;11.30;99.90;;;;;;5077302;28;20174;-79
2023/04/24 09:09:03;;;;;;;7.63;3.93;;;11.40;99.90;;;;;;5076796;28;20184;-79
2023/04/24 09:11:31;;;;;;;14.70;5.57;;;11.60;99.90;;;;;;5094800;28;20732;-78
2023/04/24 09:13:58;;;;;;;10.93;4.70;;;11.80;99.90;;;;;;5094907;28;20624;-78
2023/04/24 09:16:26;;;;;;;9.10;4.13;;;12.10;99.90;;;;;;5076686;28;20163;-80
2023/04/24 09:18:52;;;;;;;7.80;3.87;;;12.20;99.90;;;;;;5094703;28;20624;-79
2023/04/24 09:21:21;;;;;;;10.70;4.07;;;12.20;99.90;;;;;;5093403;28;20222;-78
2023/04/24 09:23:56;;;;;;;9.57;3.53;;;12.00;99.90;;;;;;5076599;28;20172;-78
2023/04/24 09:26:24;;;;;;;8.30;3.80;;;11.90;99.90;;;;;;5095151;28;20156;-78
2023/04/24 09:28:50;;;;;;;6.47;3.83;;;11.90;99.90;;;;;;5094244;28;20522;-78
2023/04/24 09:31:21;;;;;;;8.17;3.40;;;11.90;99.90;;;;;;5095331;28;20202;-78
2023/04/24 09:34:05;;;;;;;5.37;3.40;;;11.90;99.90;;;;;;5077082;28;20171;-78
2023/04/24 09:36:34;;;;;;;6.53;3.57;;;11.80;99.90;;;;;;5094955;28;20229;-77
2023/04/24 09:39:05;;;;;;;5.10;2.93;;;11.60;99.90;;;;;;5095003;28;20156;-79
2023/04/24 09:41:32;;;;;;;6.60;3.67;;;11.50;99.90;;;;;;5094832;28;20175;-78
2023/04/24 09:44:12;;;;;;;9.07;4.07;;;11.50;99.90;;;;;;5077023;28;20166;-79
2023/04/24 09:46:37;;;;;;;8.30;3.63;;;11.60;99.90;;;;;;5094874;28;20151;-78
2023/04/24 09:49:16;;;;;;;6.50;4.00;;;11.70;99.90;;;;;;5076195;28;20217;-78
2023/04/24 09:51:42;;;;;;;7.87;3.77;;;11.90;99.90;;;;;;5094222;28;20198;-79
2023/04/24 09:54:16;;;;;;;7.93;4.07;;;12.00;99.90;;;;;;5076070;28;20574;-79
2023/04/24 09:56:45;;;;;;;7.70;3.17;;;12.20;99.90;;;;;;5093850;28;20154;-78
2023/04/24 09:59:11;;;;;;;8.53;3.40;;;12.30;99.90;;;;;;5094118;28;20158;-81
2023/04/24 10:01:38;;;;;;;8.30;2.97;;;12.30;99.90;;;;;;5075847;28;20623;-79
2023/04/24 10:04:05;;;;;;;7.63;3.00;;;12.10;99.90;;;;;;5094636;28;20195;-79
2023/04/24 10:06:34;;;;;;;8.37;2.83;;;11.90;99.90;;;;;;5094160;28;20202;-79
2023/04/24 10:09:00;;;;;;;8.43;3.30;;;12.10;99.90;;;;;;5094688;28;20190;-79
2023/04/24 10:11:30;;;;;;;5.27;3.00;;;12.30;99.90;;;;;;5075299;28;20238;-77
2023/04/24 10:13:57;;;;;;;6.67;3.33;;;12.20;99.90;;;;;;5095024;28;20148;-78
2023/04/24 10:16:24;;;;;;;9.57;3.70;;;12.30;99.90;;;;;;5075833;28;20172;-78
2023/04/24 10:18:49;;;;;;;5.63;3.17;;;12.40;99.90;;;;;;5076074;28;20167;-78
2023/04/24 10:21:16;;;;;;;7.93;3.60;;;12.50;99.90;;;;;;5075636;28;20658;-77
2023/04/24 10:23:43;;;;;;;4.73;2.90;;;12.90;99.90;;;;;;5075798;28;20170;-78
2023/04/24 10:26:09;;;;;;;6.40;3.23;;;12.70;99.90;;;;;;5093460;28;20248;-78
2023/04/24 10:28:36;;;;;;;3.70;3.13;;;12.60;99.90;;;;;;5094117;28;20210;-79
2023/04/24 10:31:03;;;;;;;6.43;3.13;;;12.40;99.90;;;;;;5075563;28;20213;-79
2023/04/24 10:33:30;;;;;;;6.63;3.57;;;12.40;99.90;;;;;;5092965;28;20598;-79
2023/04/24 10:35:58;;;;;;;6.70;3.53;;;12.60;99.90;;;;;;5093466;28;20637;-77
2023/04/24 10:38:26;;;;;;;9.93;3.70;;;12.90;99.90;;;;;;5094313;28;20152;-78
2023/04/24 10:41:19;;;;;;;5.73;3.10;;;13.10;99.90;;;;;;5078794;28;20536;-78
2023/04/24 10:43:46;;;;;;;8.80;3.37;;;13.30;99.90;;;;;;5079946;28;20175;-78
2023/04/24 10:46:21;;;;;;;8.73;3.43;;;13.20;99.90;;;;;;5098409;28;20180;-78
2023/04/24 10:48:56;;;;;;;4.93;3.20;;;13.00;99.90;;;;;;5097819;28;20621;-79
2023/04/24 10:51:23;;;;;;;5.57;2.80;;;13.00;99.90;;;;;;5080165;28;20244;-78
2023/04/24 10:53:51;;;;;;;7.10;3.43;;;13.00;99.90;;;;;;5097917;28;20195;-78
2023/04/24 10:56:17;;;;;;;5.63;3.00;;;13.00;99.90;;;;;;5079766;28;20184;-78
2023/04/24 10:58:45;;;;;;;8.20;2.63;;;13.10;99.90;;;;;;5097787;28;20192;-79
2023/04/24 11:01:25;;;;;;;5.57;3.50;;;13.10;99.90;;;;;;5097680;28;20154;-79
2023/04/24 11:03:55;;;;;;;9.40;3.23;;;13.10;99.90;;;;;;5098079;28;20171;-78
2023/04/24 11:06:28;;;;;;;6.10;3.57;;;12.90;99.90;;;;;;5080010;28;20213;-79
2023/04/24 11:09:08;;;;;;;9.97;3.83;;;13.00;99.90;;;;;;5079704;28;20178;-78
2023/04/24 11:11:37;;;;;;;7.23;3.83;;;13.30;99.90;;;;;;5079320;28;20200;-78
2023/04/24 11:14:06;;;;;;;8.90;3.80;;;13.80;99.90;;;;;;5079724;28;20170;-77
2023/04/24 11:16:50;;;;;;;6.63;3.73;;;14.10;99.90;;;;;;5097945;28;20229;-78
2023/04/24 11:19:16;;;;;;;10.67;4.50;;;14.10;99.90;;;;;;5097819;28;20157;-78
2023/04/24 11:21:47;;;;;;;8.13;3.50;;;14.40;99.90;;;;;;5079342;28;20254;-78
2023/04/24 11:24:43;;;;;;;6.33;3.63;;;14.60;99.90;;;;;;5097146;28;20166;-78
2023/04/24 11:27:20;;;;;;;8.27;3.40;;;14.30;99.90;;;;;;5066478;28;20637;-79
2023/04/24 11:29:56;;;;;;;6.00;3.43;;;14.30;99.90;;;;;;5079399;28;20173;-78
2023/04/24 11:32:26;;;;;;;5.67;3.23;;;13.90;99.90;;;;;;5096907;28;20212;-78
2023/04/24 11:34:56;;;;;;;6.27;3.57;;;13.70;99.90;;;;;;5079368;28;20640;-78
2023/04/24 11:37:23;;;;;;;7.67;4.10;;;13.60;99.90;;;;;;5078494;28;20178;-78
2023/04/24 11:39:58;;;;;;;10.53;4.10;;;13.70;99.90;;;;;;5079281;28;20154;-78
2023/04/24 11:42:25;;;;;;;6.57;3.60;;;13.70;99.90;;;;;;5078562;28;20177;-79
2023/04/24 11:44:53;;;;;;;7.07;3.43;;;13.80;99.90;;;;;;5097407;28;20192;-79
2023/04/24 11:47:19;;;;;;;10.00;3.57;;;13.90;99.90;;;;;;5079380;28;20189;-78
2023/04/24 11:49:44;;;;;;;8.23;4.43;;;13.70;99.90;;;;;;5097130;28;20578;-79
2023/04/24 11:52:10;;;;;;;12.73;4.10;;;14.00;99.90;;;;;;5096391;28;20739;-79
2023/04/24 11:54:36;;;;;;;7.93;4.50;;;14.10;99.90;;;;;;5079056;28;20187;-78
2023/04/24 11:57:06;;;;;;;6.33;3.97;;;13.60;99.90;;;;;;5097217;28;20198;-79
2023/04/24 11:59:37;;;;;;;8.90;4.27;;;13.50;99.90;;;;;;5078876;28;20168;-80
2023/04/24 12:02:03;;;;;;;10.07;4.53;;;13.60;99.90;;;;;;5078409;28;20181;-80
2023/04/24 12:04:39;;;;;;;9.90;4.57;;;13.60;99.90;;;;;;5078872;28;20176;-79
2023/04/24 12:07:05;;;;;;;7.20;4.10;;;13.70;99.90;;;;;;5096762;28;20580;-77
2023/04/24 12:09:42;;;;;;;9.20;4.50;;;13.80;99.90;;;;;;5078647;28;20189;-80
2023/04/24 12:12:09;;;;;;;8.37;4.63;;;13.90;99.90;;;;;;5077969;28;20721;-79
2023/04/24 12:14:54;;;;;;;7.17;4.33;;;13.80;99.90;;;;;;5078084;28;20646;-79
2023/04/24 12:17:31;;;;;;;5.80;3.10;;;14.00;99.90;;;;;;5078454;28;20202;-78
2023/04/24 12:20:06;;;;;;;6.60;3.60;;;14.50;99.90;;;;;;5096400;28;20185;-80
2023/04/24 12:22:48;;;;;;;9.97;4.20;;;14.80;99.90;;;;;;5096420;28;20212;-79
2023/04/24 12:25:15;;;;;;;5.87;3.43;;;15.20;99.90;;;;;;5078137;28;20179;-79
2023/04/24 12:27:43;;;;;;;4.90;3.17;;;15.60;99.90;;;;;;5078384;28;20321;-79
2023/04/24 12:30:16;;;;;;;5.07;3.00;;;15.80;98.70;;;;;;5096481;28;20178;-79
2023/04/24 12:32:48;;;;;;;6.20;3.30;;;15.60;98.80;;;;;;5096160;28;20187;-79
2023/04/24 12:35:20;;;;;;;6.60;3.10;;;15.90;99.20;;;;;;5077685;28;20253;-78
2023/04/24 12:37:45;;;;;;;5.10;3.07;;;16.10;98.90;;;;;;5096594;28;20215;-78
2023/04/24 12:40:13;;;;;;;7.10;3.53;;;16.00;99.70;;;;;;5077876;28;20527;-79
2023/04/24 12:42:50;;;;;;;5.67;3.57;;;16.50;99.30;;;;;;5095806;28;20173;-78